Stuyvesant — WNFX — position and weather

sailwx.info

Track history (hours):
 
Tides and Currents Weather Stations Pressure Air Temp Water Temp Dewpoint Dewpoint Depression Visibility Wind Speed Wind Dir Waves Ship Positions

Stuyvesant

Owner: THE DUTRA GROUP, SAN RAFAEL, CA. More information available from US FCC via Universal Licensing System and Coast Guard Vessel Documentation Center.

Last reported at 2015-Mar-31 00:21 UTC. Time now 2015-Mar-31 20:47 UTC.
Position N 39°26' W 074°03'.

Length 122 m; draft 10.2 m.

Type: Cargo ship. MMSI: 368098000.

Date/timePositionNaut miles runAvg speedWind from/ knotsBaromVisibWave heightAir tempDewpointWater temp
2015-Mar-31 00:21N 39°26' W 074°03'1113.5
2015-Mar-30 23:33N 39°36' W 073°59'1413.5
2015-Mar-30 22:31N 39°50' W 073°55'3511.6
2015-Mar-30 19:30N 40°25' W 073°50'9 9.4
2015-Mar-30 18:34N 40°31' W 073°59'9 8.3
2015-Mar-30 17:31N 40°39' W 074°03'0 0.0
2015-Mar-30 16:28N 40°39' W 074°03'0 0.0
2015-Mar-30 15:28N 40°39' W 074°03'0 0.0
2015-Mar-30 14:31N 40°39' W 074°03'0 0.1
2015-Mar-30 13:31N 40°39' W 074°03'0 0.1
2015-Mar-30 12:31N 40°39' W 074°03'0 0.0
2015-Mar-30 11:31N 40°39' W 074°03'0 0.0
2015-Mar-30 10:31N 40°39' W 074°03'0 0.0
2015-Mar-30 09:31N 40°39' W 074°03'0 0.0
2015-Mar-30 08:28N 40°39' W 074°03'0 0.0
2015-Mar-30 07:28N 40°39' W 074°03'0 0.1
2015-Mar-30 06:31N 40°39' W 074°03'0 0.1
2015-Mar-30 05:34N 40°39' W 074°03'0 0.0
2015-Mar-30 04:30N 40°39' W 074°03'0 0.0
2015-Mar-30 03:33N 40°39' W 074°03'0 0.0
2015-Mar-30 02:33N 40°39' W 074°03'0 0.0
2015-Mar-30 01:33N 40°39' W 074°03'0 0.1
2015-Mar-30 00:33N 40°39' W 074°03'0 0.1
2015-Mar-29 23:33N 40°39' W 074°03'3 2.8
2015-Mar-29 22:33N 40°36' W 074°03'1010.0
2015-Mar-29 21:31N 40°29' W 073°53'48 9.5
2015-Mar-29 16:27N 40°40' W 072°51'5 5.5
2015-Mar-29 15:33N 40°44' W 072°48'0 0.0
2015-Mar-29 14:33N 40°44' W 072°48'0 0.0
2015-Mar-29 13:33N 40°44' W 072°48'0 0.0
2015-Mar-29 12:33N 40°44' W 072°48'0 0.0
2015-Mar-29 11:33N 40°44' W 072°48'6 5.8
2015-Mar-29 10:33N 40°46' W 072°40'5 5.3
2015-Mar-29 09:33N 40°47' W 072°34'1 1.2
2015-Mar-29 08:33N 40°47' W 072°35'4 3.7
2015-Mar-29 07:33N 40°46' W 072°40'6 6.2
2015-Mar-29 06:33N 40°44' W 072°48'0 0.0
2015-Mar-29 05:33N 40°44' W 072°48'0 0.0
2015-Mar-29 04:16N 40°44' W 072°48'0 0.0
2015-Mar-29 03:33N 40°44' W 072°48'7 6.1
2015-Mar-29 02:24N 40°46' W 072°39'4 4.4
2015-Mar-29 01:33N 40°47' W 072°34'0 0.4
2015-Mar-29 00:33N 40°48' W 072°35'5 5.2
2015-Mar-28 23:33N 40°46' W 072°41'5 5.4
2015-Mar-28 22:33N 40°44' W 072°48'0 0.0
2015-Mar-28 21:33N 40°44' W 072°48'0 0.0
2015-Mar-28 20:33N 40°44' W 072°48'0 0.0
2015-Mar-28 19:33N 40°44' W 072°48'6 6.0
2015-Mar-28 18:33N 40°46' W 072°40'4 4.1
2015-Mar-28 17:33N 40°47' W 072°35'0 0.0
2015-Mar-28 16:33N 40°47' W 072°35'0 0.5
2015-Mar-28 15:33N 40°47' W 072°36'10 9.5
2015-Mar-28 14:33N 40°44' W 072°47'1 0.6
2015-Mar-28 13:33N 40°44' W 072°48'0 0.0
2015-Mar-28 12:33N 40°44' W 072°48'0 0.0
2015-Mar-28 11:33N 40°44' W 072°48'6 5.4
2015-Mar-28 10:22N 40°45' W 072°40'4 4.7
2015-Mar-28 09:33N 40°47' W 072°35'0 0.3
2015-Mar-28 08:33N 40°47' W 072°35'1 1.1
2015-Mar-28 07:33N 40°47' W 072°36'9 9.1
2015-Mar-28 06:33N 40°44' W 072°47'1 0.6
2015-Mar-28 05:33N 40°44' W 072°48'0 0.0
2015-Mar-28 04:29N 40°44' W 072°48'0 0.0
2015-Mar-28 03:33N 40°44' W 072°48'4 3.4
2015-Mar-28 02:32N 40°45' W 072°43'7 6.9
2015-Mar-28 01:33N 40°47' W 072°35'0 0.5
2015-Mar-28 00:33N 40°48' W 072°35'1 1.0
2015-Mar-27 23:33N 40°47' W 072°34'3 2.6
2015-Mar-27 22:33N 40°45' W 072°33'2 1.7
2015-Mar-27 21:33N 40°43' W 072°32'0 0.2
2015-Mar-27 20:33N 40°43' W 072°32'1 1.4
2015-Mar-27 19:33N 40°44' W 072°33'1 1.3
2015-Mar-27 18:33N 40°45' W 072°34'2 2.0
2015-Mar-27 17:33N 40°47' W 072°35'0 0.3
2015-Mar-27 16:33N 40°46' W 072°36'1 1.5
2015-Mar-27 15:33N 40°45' W 072°35'2 1.5
2015-Mar-27 14:33N 40°44' W 072°34'1 0.8
2015-Mar-27 13:33N 40°44' W 072°33'2 2.0
2015-Mar-27 12:33N 40°46' W 072°34'1 0.6
2015-Mar-27 11:33N 40°47' W 072°33'1 1.1
2015-Mar-27 10:33N 40°46' W 072°34'1 0.8
2015-Mar-27 09:33N 40°45' W 072°34'1 0.9
2015-Mar-27 08:33N 40°44' W 072°34'0 0.3
2015-Mar-27 07:33N 40°45' W 072°35'1 1.5
2015-Mar-27 06:33N 40°46' W 072°36'1 1.3
2015-Mar-27 05:33N 40°47' W 072°36'1 1.4
2015-Mar-27 04:33N 40°46' W 072°37'2 2.1
2015-Mar-27 03:33N 40°43' W 072°37'3 3.4
2015-Mar-27 02:33N 40°40' W 072°38'4 3.7
2015-Mar-27 01:33N 40°42' W 072°43'5 4.7
2015-Mar-27 00:33N 40°44' W 072°48'0 0.0
2015-Mar-26 23:33N 40°44' W 072°48'0 0.0
2015-Mar-26 22:33N 40°44' W 072°48'0 0.0
2015-Mar-26 21:33N 40°44' W 072°48'2 2.3
2015-Mar-26 20:29N 40°45' W 072°45'9 9.6
2015-Mar-26 19:33N 40°48' W 072°34'1 1.3
2015-Mar-26 18:33N 40°47' W 072°35'5 5.5
2015-Mar-26 17:33N 40°45' W 072°42'5 2.2
2015-Mar-26 15:30N 40°44' W 072°48'0 0.0
2015-Mar-26 14:30N 40°44' W 072°48'0 0.1
2015-Mar-26 13:33N 40°44' W 072°48'10 9.6
2015-Mar-26 12:33N 40°47' W 072°36'1 1.3
2015-Mar-26 11:33N 40°47' W 072°34'1 1.1
2015-Mar-26 10:33N 40°47' W 072°36'9 9.1
2015-Mar-26 09:33N 40°44' W 072°47'1 0.7
2015-Mar-26 08:33N 40°44' W 072°48'0 0.0
2015-Mar-26 07:33N 40°44' W 072°48'0 0.0
2015-Mar-26 06:33N 40°44' W 072°48'5 4.1
2015-Mar-26 05:18N 40°45' W 072°41'5 6.8
2015-Mar-26 04:33N 40°47' W 072°35'0 0.5
2015-Mar-26 03:33N 40°47' W 072°34'2 1.6
2015-Mar-26 02:33N 40°47' W 072°36'9 9.1
2015-Mar-26 01:33N 40°44' W 072°48'0 0.1
2015-Mar-26 00:33N 40°44' W 072°48'0 0.0
2015-Mar-25 23:33N 40°44' W 072°48'0 0.0
2015-Mar-25 22:31N 40°44' W 072°48'5 3.7
2015-Mar-25 21:10N 40°45' W 072°41'610.2
2015-Mar-25 20:33N 40°48' W 072°34'1 0.7
2015-Mar-25 19:33N 40°47' W 072°35'2 1.9
2015-Mar-25 18:33N 40°47' W 072°37'9 8.6
2015-Mar-25 17:33N 40°44' W 072°48'0 0.1
2015-Mar-25 16:33N 40°44' W 072°48'0 0.0
2015-Mar-25 15:33N 40°44' W 072°48'0 0.0
2015-Mar-25 14:33N 40°44' W 072°48'6 6.3
2015-Mar-25 13:33N 40°46' W 072°40'5 4.7
2015-Mar-25 12:33N 40°47' W 072°34'1 1.2
2015-Mar-25 11:33N 40°47' W 072°35'7 7.5
2015-Mar-25 10:33N 40°45' W 072°45'2 2.4
2015-Mar-25 09:33N 40°44' W 072°48'0 0.0
2015-Mar-25 08:33N 40°44' W 072°48'9 8.7
2015-Mar-25 07:33N 40°47' W 072°37'2 2.1
2015-Mar-25 06:33N 40°47' W 072°34'1 0.9
2015-Mar-25 05:33N 40°47' W 072°35'6 6.1
2015-Mar-25 04:33N 40°45' W 072°43'4 3.8
2015-Mar-25 03:33N 40°44' W 072°48'0 0.0
2015-Mar-25 02:33N 40°44' W 072°48'0 0.0
2015-Mar-25 01:33N 40°44' W 072°48'4 3.5
2015-Mar-25 00:31N 40°45' W 072°43'8 7.8
2015-Mar-24 23:33N 40°47' W 072°34'1 0.9
2015-Mar-24 22:33N 40°47' W 072°35'7 6.6
2015-Mar-24 21:33N 40°45' W 072°43'4 3.7
2015-Mar-24 20:33N 40°44' W 072°48'0 0.0
2015-Mar-24 19:33N 40°44' W 072°48'0 0.0
2015-Mar-24 18:33N 40°44' W 072°48'0 0.0
2015-Mar-24 17:33N 40°44' W 072°48'8 8.1
2015-Mar-24 16:33N 40°46' W 072°38'3 2.6
2015-Mar-24 15:33N 40°47' W 072°34'1 1.3
2015-Mar-24 14:33N 40°47' W 072°36'9 9.0
2015-Mar-24 13:33N 40°44' W 072°47'0 0.5
2015-Mar-24 12:32N 40°44' W 072°48'0 0.0
2015-Mar-24 11:33N 40°44' W 072°48'0 0.0
2015-Mar-24 10:33N 40°44' W 072°48'0 0.0
2015-Mar-24 09:33N 40°44' W 072°48'5 3.8
2015-Mar-24 08:19N 40°45' W 072°42'5 6.8
2015-Mar-24 07:33N 40°47' W 072°35'1 1.3
2015-Mar-24 06:33N 40°48' W 072°34'1 1.3
2015-Mar-24 05:33N 40°47' W 072°35'1 0.7
2015-Mar-24 04:33N 40°47' W 072°36'0 0.4
2015-Mar-24 03:33N 40°47' W 072°36'5 4.8
2015-Mar-24 02:33N 40°44' W 072°41'5 4.5
2015-Mar-24 01:33N 40°41' W 072°46'5 5.4
2015-Mar-24 00:33N 40°38' W 072°52'8 6.4
2015-Mar-23 23:22N 40°34' W 073°01'8 8.7
2015-Mar-23 22:25N 40°33' W 073°11'9 8.7
2015-Mar-23 21:22N 40°31' W 073°23'8 9.1
2015-Mar-23 20:31N 40°29' W 073°33'11 9.2
2015-Mar-23 19:22N 40°29' W 073°47'8 9.3
2015-Mar-23 18:33N 40°30' W 073°57'1110.8
2015-Mar-23 17:33N 40°40' W 074°03'0 0.4
2015-Mar-23 16:30N 40°40' W 074°02'0 0.0
2015-Mar-23 15:30N 40°40' W 074°02'0 0.0
2015-Mar-23 14:30N 40°40' W 074°03'0 0.1
2015-Mar-23 13:30N 40°40' W 074°02'0 0.0
2015-Mar-23 12:30N 40°40' W 074°03'0 0.0
2015-Mar-23 11:30N 40°40' W 074°03'0 0.0
2015-Mar-23 10:30N 40°40' W 074°03'0 0.0
2015-Mar-23 09:33N 40°40' W 074°03'0 0.0
2015-Mar-23 08:32N 40°40' W 074°03'0 0.0
2015-Mar-23 07:29N 40°40' W 074°03'0 0.0
2015-Mar-23 06:29N 40°40' W 074°03'0 0.0
2015-Mar-23 05:29N 40°40' W 074°03'0 0.0
2015-Mar-23 04:32N 40°40' W 074°03'0 0.1
2015-Mar-23 03:29N 40°40' W 074°03'0 0.0
2015-Mar-23 02:29N 40°40' W 074°03'0 0.0
2015-Mar-23 01:32N 40°40' W 074°03'0 0.1
2015-Mar-23 00:29N 40°40' W 074°03'0 0.1
2015-Mar-22 23:29N 40°40' W 074°03'0 0.0
2015-Mar-22 22:32N 40°40' W 074°03'0 0.0
2015-Mar-22 21:29N 40°40' W 074°03'0 0.0
2015-Mar-22 20:29N 40°40' W 074°03'0 0.0
2015-Mar-22 19:32N 40°40' W 074°03'0 0.0
2015-Mar-22 18:29N 40°40' W 074°03'0 0.0
2015-Mar-22 17:29N 40°40' W 074°03'0 0.1
2015-Mar-22 16:29N 40°40' W 074°02'0 0.1
2015-Mar-22 15:29N 40°40' W 074°02'0 0.1
2015-Mar-22 14:29N 40°40' W 074°02'0 0.0
2015-Mar-22 13:29N 40°40' W 074°02'0 0.1
2015-Mar-22 12:32N 40°40' W 074°03'0 0.0
2015-Mar-22 11:29N 40°40' W 074°03'0 0.0
2015-Mar-22 10:29N 40°40' W 074°03'0 0.0
2015-Mar-22 09:29N 40°40' W 074°03'0 0.0
2015-Mar-22 08:29N 40°40' W 074°03'0 0.0
2015-Mar-22 07:29N 40°40' W 074°03'0 0.0
2015-Mar-22 06:29N 40°40' W 074°03'0 0.0
2015-Mar-22 05:29N 40°40' W 074°03'0 0.0
2015-Mar-22 04:29N 40°40' W 074°03'0 0.1
2015-Mar-22 03:29N 40°40' W 074°02'0 0.0
2015-Mar-22 02:29N 40°40' W 074°03'0 0.0
2015-Mar-22 01:29N 40°40' W 074°03'0 0.0
2015-Mar-22 00:29N 40°40' W 074°03'0 0.0
2015-Mar-21 23:29N 40°40' W 074°03'0 0.1
2015-Mar-21 22:28N 40°40' W 074°03'0 0.0
2015-Mar-21 21:29N 40°40' W 074°03'0 0.0
2015-Mar-21 20:28N 40°40' W 074°03'0 0.0
2015-Mar-21 19:28N 40°40' W 074°03'0 0.0
2015-Mar-21 18:28N 40°40' W 074°03'0 0.0
2015-Mar-21 17:31N 40°40' W 074°03'0 0.1
2015-Mar-21 16:28N 40°40' W 074°03'0 0.0
2015-Mar-21 15:31N 40°40' W 074°03'0 0.0
2015-Mar-21 14:28N 40°40' W 074°03'0 0.0
2015-Mar-21 13:28N 40°40' W 074°03'0 0.1
2015-Mar-21 12:28N 40°40' W 074°03'0 0.0
2015-Mar-21 11:28N 40°40' W 074°03'0 0.1
2015-Mar-21 10:22N 40°40' W 074°03'0 0.0
2015-Mar-21 09:28N 40°40' W 074°03'0 0.0
2015-Mar-21 08:28N 40°40' W 074°03'0 0.0
2015-Mar-21 07:31N 40°40' W 074°03'0 0.0
2015-Mar-21 06:28N 40°40' W 074°03'0 0.0
2015-Mar-21 05:31N 40°40' W 074°03'0 0.0
2015-Mar-21 04:25N 40°40' W 074°03'0 0.0
2015-Mar-21 03:31N 40°40' W 074°03'0 0.1
2015-Mar-21 02:28N 40°40' W 074°03'0 0.0
2015-Mar-21 01:28N 40°40' W 074°03'0 0.0
2015-Mar-21 00:28N 40°40' W 074°03'  
Track history (hours):
 
Tides and Currents Weather Stations Pressure Air Temp Water Temp Dewpoint Dewpoint Depression Visibility Wind Speed Wind Dir Waves Ship Positions

Stuyvesant

Owner: THE DUTRA GROUP, SAN RAFAEL, CA. More information available from US FCC via Universal Licensing System and Coast Guard Vessel Documentation Center.

Last reported at 2015-Mar-31 00:21 UTC. Time now 2015-Mar-31 20:47 UTC.
Position N 39°26' W 074°03'.

Length 122 m; draft 10.2 m.

Type: Cargo ship. MMSI: 368098000.

Date/timePositionNaut miles runAvg speedWind from/ knotsBaromVisibWave heightAir tempDewpointWater temp
2015-Mar-31 00:21N 39°26' W 074°03'1113.5
2015-Mar-30 23:33N 39°36' W 073°59'1413.5
2015-Mar-30 22:31N 39°50' W 073°55'3511.6
2015-Mar-30 19:30N 40°25' W 073°50'9 9.4
2015-Mar-30 18:34N 40°31' W 073°59'9 8.3
2015-Mar-30 17:31N 40°39' W 074°03'0 0.0
2015-Mar-30 16:28N 40°39' W 074°03'0 0.0
2015-Mar-30 15:28N 40°39' W 074°03'0 0.0
2015-Mar-30 14:31N 40°39' W 074°03'0 0.1
2015-Mar-30 13:31N 40°39' W 074°03'0 0.1
2015-Mar-30 12:31N 40°39' W 074°03'0 0.0
2015-Mar-30 11:31N 40°39' W 074°03'0 0.0
2015-Mar-30 10:31N 40°39' W 074°03'0 0.0
2015-Mar-30 09:31N 40°39' W 074°03'0 0.0
2015-Mar-30 08:28N 40°39' W 074°03'0 0.0
2015-Mar-30 07:28N 40°39' W 074°03'0 0.1
2015-Mar-30 06:31N 40°39' W 074°03'0 0.1
2015-Mar-30 05:34N 40°39' W 074°03'0 0.0
2015-Mar-30 04:30N 40°39' W 074°03'0 0.0
2015-Mar-30 03:33N 40°39' W 074°03'0 0.0
2015-Mar-30 02:33N 40°39' W 074°03'0 0.0
2015-Mar-30 01:33N 40°39' W 074°03'0 0.1
2015-Mar-30 00:33N 40°39' W 074°03'0 0.1
2015-Mar-29 23:33N 40°39' W 074°03'3 2.8
2015-Mar-29 22:33N 40°36' W 074°03'1010.0
2015-Mar-29 21:31N 40°29' W 073°53'48 9.5
2015-Mar-29 16:27N 40°40' W 072°51'5 5.5
2015-Mar-29 15:33N 40°44' W 072°48'0 0.0
2015-Mar-29 14:33N 40°44' W 072°48'0 0.0
2015-Mar-29 13:33N 40°44' W 072°48'0 0.0
2015-Mar-29 12:33N 40°44' W 072°48'0 0.0
2015-Mar-29 11:33N 40°44' W 072°48'6 5.8
2015-Mar-29 10:33N 40°46' W 072°40'5 5.3
2015-Mar-29 09:33N 40°47' W 072°34'1 1.2
2015-Mar-29 08:33N 40°47' W 072°35'4 3.7
2015-Mar-29 07:33N 40°46' W 072°40'6 6.2
2015-Mar-29 06:33N 40°44' W 072°48'0 0.0
2015-Mar-29 05:33N 40°44' W 072°48'0 0.0
2015-Mar-29 04:16N 40°44' W 072°48'0 0.0
2015-Mar-29 03:33N 40°44' W 072°48'7 6.1
2015-Mar-29 02:24N 40°46' W 072°39'4 4.4
2015-Mar-29 01:33N 40°47' W 072°34'0 0.4
2015-Mar-29 00:33N 40°48' W 072°35'5 5.2
2015-Mar-28 23:33N 40°46' W 072°41'5 5.4
2015-Mar-28 22:33N 40°44' W 072°48'0 0.0
2015-Mar-28 21:33N 40°44' W 072°48'0 0.0
2015-Mar-28 20:33N 40°44' W 072°48'0 0.0
2015-Mar-28 19:33N 40°44' W 072°48'6 6.0
2015-Mar-28 18:33N 40°46' W 072°40'4 4.1
2015-Mar-28 17:33N 40°47' W 072°35'0 0.0
2015-Mar-28 16:33N 40°47' W 072°35'0 0.5
2015-Mar-28 15:33N 40°47' W 072°36'10 9.5
2015-Mar-28 14:33N 40°44' W 072°47'1 0.6
2015-Mar-28 13:33N 40°44' W 072°48'0 0.0
2015-Mar-28 12:33N 40°44' W 072°48'0 0.0
2015-Mar-28 11:33N 40°44' W 072°48'6 5.4
2015-Mar-28 10:22N 40°45' W 072°40'4 4.7
2015-Mar-28 09:33N 40°47' W 072°35'0 0.3
2015-Mar-28 08:33N 40°47' W 072°35'1 1.1
2015-Mar-28 07:33N 40°47' W 072°36'9 9.1
2015-Mar-28 06:33N 40°44' W 072°47'1 0.6
2015-Mar-28 05:33N 40°44' W 072°48'0 0.0
2015-Mar-28 04:29N 40°44' W 072°48'0 0.0
2015-Mar-28 03:33N 40°44' W 072°48'4 3.4
2015-Mar-28 02:32N 40°45' W 072°43'7 6.9
2015-Mar-28 01:33N 40°47' W 072°35'0 0.5
2015-Mar-28 00:33N 40°48' W 072°35'1 1.0
2015-Mar-27 23:33N 40°47' W 072°34'3 2.6
2015-Mar-27 22:33N 40°45' W 072°33'2 1.7
2015-Mar-27 21:33N 40°43' W 072°32'0 0.2
2015-Mar-27 20:33N 40°43' W 072°32'1 1.4
2015-Mar-27 19:33N 40°44' W 072°33'1 1.3
2015-Mar-27 18:33N 40°45' W 072°34'2 2.0
2015-Mar-27 17:33N 40°47' W 072°35'0 0.3
2015-Mar-27 16:33N 40°46' W 072°36'1 1.5
2015-Mar-27 15:33N 40°45' W 072°35'2 1.5
2015-Mar-27 14:33N 40°44' W 072°34'1 0.8
2015-Mar-27 13:33N 40°44' W 072°33'2 2.0
2015-Mar-27 12:33N 40°46' W 072°34'1 0.6
2015-Mar-27 11:33N 40°47' W 072°33'1 1.1
2015-Mar-27 10:33N 40°46' W 072°34'1 0.8
2015-Mar-27 09:33N 40°45' W 072°34'1 0.9
2015-Mar-27 08:33N 40°44' W 072°34'0 0.3
2015-Mar-27 07:33N 40°45' W 072°35'1 1.5
2015-Mar-27 06:33N 40°46' W 072°36'1 1.3
2015-Mar-27 05:33N 40°47' W 072°36'1 1.4
2015-Mar-27 04:33N 40°46' W 072°37'2 2.1
2015-Mar-27 03:33N 40°43' W 072°37'3 3.4
2015-Mar-27 02:33N 40°40' W 072°38'4 3.7
2015-Mar-27 01:33N 40°42' W 072°43'5 4.7
2015-Mar-27 00:33N 40°44' W 072°48'0 0.0
2015-Mar-26 23:33N 40°44' W 072°48'0 0.0
2015-Mar-26 22:33N 40°44' W 072°48'0 0.0
2015-Mar-26 21:33N 40°44' W 072°48'2 2.3
2015-Mar-26 20:29N 40°45' W 072°45'9 9.6
2015-Mar-26 19:33N 40°48' W 072°34'1 1.3
2015-Mar-26 18:33N 40°47' W 072°35'5 5.5
2015-Mar-26 17:33N 40°45' W 072°42'5 2.2
2015-Mar-26 15:30N 40°44' W 072°48'0 0.0
2015-Mar-26 14:30N 40°44' W 072°48'0 0.1
2015-Mar-26 13:33N 40°44' W 072°48'10 9.6
2015-Mar-26 12:33N 40°47' W 072°36'1 1.3
2015-Mar-26 11:33N 40°47' W 072°34'1 1.1
2015-Mar-26 10:33N 40°47' W 072°36'9 9.1
2015-Mar-26 09:33N 40°44' W 072°47'1 0.7
2015-Mar-26 08:33N 40°44' W 072°48'0 0.0
2015-Mar-26 07:33N 40°44' W 072°48'0 0.0
2015-Mar-26 06:33N 40°44' W 072°48'5 4.1
2015-Mar-26 05:18N 40°45' W 072°41'5 6.8
2015-Mar-26 04:33N 40°47' W 072°35'0 0.5
2015-Mar-26 03:33N 40°47' W 072°34'2 1.6
2015-Mar-26 02:33N 40°47' W 072°36'9 9.1
2015-Mar-26 01:33N 40°44' W 072°48'0 0.1
2015-Mar-26 00:33N 40°44' W 072°48'0 0.0
2015-Mar-25 23:33N 40°44' W 072°48'0 0.0
2015-Mar-25 22:31N 40°44' W 072°48'5 3.7
2015-Mar-25 21:10N 40°45' W 072°41'610.2
2015-Mar-25 20:33N 40°48' W 072°34'1 0.7
2015-Mar-25 19:33N 40°47' W 072°35'2 1.9
2015-Mar-25 18:33N 40°47' W 072°37'9 8.6
2015-Mar-25 17:33N 40°44' W 072°48'0 0.1
2015-Mar-25 16:33N 40°44' W 072°48'0 0.0
2015-Mar-25 15:33N 40°44' W 072°48'0 0.0
2015-Mar-25 14:33N 40°44' W 072°48'6 6.3
2015-Mar-25 13:33N 40°46' W 072°40'5 4.7
2015-Mar-25 12:33N 40°47' W 072°34'1 1.2
2015-Mar-25 11:33N 40°47' W 072°35'7 7.5
2015-Mar-25 10:33N 40°45' W 072°45'2 2.4
2015-Mar-25 09:33N 40°44' W 072°48'0 0.0
2015-Mar-25 08:33N 40°44' W 072°48'9 8.7
2015-Mar-25 07:33N 40°47' W 072°37'2 2.1
2015-Mar-25 06:33N 40°47' W 072°34'1 0.9
2015-Mar-25 05:33N 40°47' W 072°35'6 6.1
2015-Mar-25 04:33N 40°45' W 072°43'4 3.8
2015-Mar-25 03:33N 40°44' W 072°48'0 0.0
2015-Mar-25 02:33N 40°44' W 072°48'0 0.0
2015-Mar-25 01:33N 40°44' W 072°48'4 3.5
2015-Mar-25 00:31N 40°45' W 072°43'8 7.8
2015-Mar-24 23:33N 40°47' W 072°34'1 0.9
2015-Mar-24 22:33N 40°47' W 072°35'7 6.6
2015-Mar-24 21:33N 40°45' W 072°43'4 3.7
2015-Mar-24 20:33N 40°44' W 072°48'0 0.0
2015-Mar-24 19:33N 40°44' W 072°48'0 0.0
2015-Mar-24 18:33N 40°44' W 072°48'0 0.0
2015-Mar-24 17:33N 40°44' W 072°48'8 8.1
2015-Mar-24 16:33N 40°46' W 072°38'3 2.6
2015-Mar-24 15:33N 40°47' W 072°34'1 1.3
2015-Mar-24 14:33N 40°47' W 072°36'9 9.0
2015-Mar-24 13:33N 40°44' W 072°47'0 0.5
2015-Mar-24 12:32N 40°44' W 072°48'0 0.0
2015-Mar-24 11:33N 40°44' W 072°48'0 0.0
2015-Mar-24 10:33N 40°44' W 072°48'0 0.0
2015-Mar-24 09:33N 40°44' W 072°48'5 3.8
2015-Mar-24 08:19N 40°45' W 072°42'5 6.8
2015-Mar-24 07:33N 40°47' W 072°35'1 1.3
2015-Mar-24 06:33N 40°48' W 072°34'1 1.3
2015-Mar-24 05:33N 40°47' W 072°35'1 0.7
2015-Mar-24 04:33N 40°47' W 072°36'0 0.4
2015-Mar-24 03:33N 40°47' W 072°36'5 4.8
2015-Mar-24 02:33N 40°44' W 072°41'5 4.5
2015-Mar-24 01:33N 40°41' W 072°46'5 5.4
2015-Mar-24 00:33N 40°38' W 072°52'8 6.4
2015-Mar-23 23:22N 40°34' W 073°01'8 8.7
2015-Mar-23 22:25N 40°33' W 073°11'9 8.7
2015-Mar-23 21:22N 40°31' W 073°23'8 9.1
2015-Mar-23 20:31N 40°29' W 073°33'11 9.2
2015-Mar-23 19:22N 40°29' W 073°47'8 9.3
2015-Mar-23 18:33N 40°30' W 073°57'1110.8
2015-Mar-23 17:33N 40°40' W 074°03'0 0.4
2015-Mar-23 16:30N 40°40' W 074°02'0 0.0
2015-Mar-23 15:30N 40°40' W 074°02'0 0.0
2015-Mar-23 14:30N 40°40' W 074°03'0 0.1
2015-Mar-23 13:30N 40°40' W 074°02'0 0.0
2015-Mar-23 12:30N 40°40' W 074°03'0 0.0
2015-Mar-23 11:30N 40°40' W 074°03'0 0.0
2015-Mar-23 10:30N 40°40' W 074°03'0 0.0
2015-Mar-23 09:33N 40°40' W 074°03'0 0.0
2015-Mar-23 08:32N 40°40' W 074°03'0 0.0
2015-Mar-23 07:29N 40°40' W 074°03'0 0.0
2015-Mar-23 06:29N 40°40' W 074°03'0 0.0
2015-Mar-23 05:29N 40°40' W 074°03'0 0.0
2015-Mar-23 04:32N 40°40' W 074°03'0 0.1
2015-Mar-23 03:29N 40°40' W 074°03'0 0.0
2015-Mar-23 02:29N 40°40' W 074°03'0 0.0
2015-Mar-23 01:32N 40°40' W 074°03'0 0.1
2015-Mar-23 00:29N 40°40' W 074°03'0 0.1
2015-Mar-22 23:29N 40°40' W 074°03'0 0.0
2015-Mar-22 22:32N 40°40' W 074°03'0 0.0
2015-Mar-22 21:29N 40°40' W 074°03'0 0.0
2015-Mar-22 20:29N 40°40' W 074°03'0 0.0
2015-Mar-22 19:32N 40°40' W 074°03'0 0.0
2015-Mar-22 18:29N 40°40' W 074°03'0 0.0
2015-Mar-22 17:29N 40°40' W 074°03'0 0.1
2015-Mar-22 16:29N 40°40' W 074°02'0 0.1
2015-Mar-22 15:29N 40°40' W 074°02'0 0.1
2015-Mar-22 14:29N 40°40' W 074°02'0 0.0
2015-Mar-22 13:29N 40°40' W 074°02'0 0.1
2015-Mar-22 12:32N 40°40' W 074°03'0 0.0
2015-Mar-22 11:29N 40°40' W 074°03'0 0.0
2015-Mar-22 10:29N 40°40' W 074°03'0 0.0
2015-Mar-22 09:29N 40°40' W 074°03'0 0.0
2015-Mar-22 08:29N 40°40' W 074°03'0 0.0
2015-Mar-22 07:29N 40°40' W 074°03'0 0.0
2015-Mar-22 06:29N 40°40' W 074°03'0 0.0
2015-Mar-22 05:29N 40°40' W 074°03'0 0.0
2015-Mar-22 04:29N 40°40' W 074°03'0 0.1
2015-Mar-22 03:29N 40°40' W 074°02'0 0.0
2015-Mar-22 02:29N 40°40' W 074°03'0 0.0
2015-Mar-22 01:29N 40°40' W 074°03'0 0.0
2015-Mar-22 00:29N 40°40' W 074°03'0 0.0
2015-Mar-21 23:29N 40°40' W 074°03'0 0.1
2015-Mar-21 22:28N 40°40' W 074°03'0 0.0
2015-Mar-21 21:29N 40°40' W 074°03'0 0.0
2015-Mar-21 20:28N 40°40' W 074°03'0 0.0
2015-Mar-21 19:28N 40°40' W 074°03'0 0.0
2015-Mar-21 18:28N 40°40' W 074°03'0 0.0
2015-Mar-21 17:31N 40°40' W 074°03'0 0.1
2015-Mar-21 16:28N 40°40' W 074°03'0 0.0
2015-Mar-21 15:31N 40°40' W 074°03'0 0.0
2015-Mar-21 14:28N 40°40' W 074°03'0 0.0
2015-Mar-21 13:28N 40°40' W 074°03'0 0.1
2015-Mar-21 12:28N 40°40' W 074°03'0 0.0
2015-Mar-21 11:28N 40°40' W 074°03'0 0.1
2015-Mar-21 10:22N 40°40' W 074°03'0 0.0
2015-Mar-21 09:28N 40°40' W 074°03'0 0.0
2015-Mar-21 08:28N 40°40' W 074°03'0 0.0
2015-Mar-21 07:31N 40°40' W 074°03'0 0.0
2015-Mar-21 06:28N 40°40' W 074°03'0 0.0
2015-Mar-21 05:31N 40°40' W 074°03'0 0.0
2015-Mar-21 04:25N 40°40' W 074°03'0 0.0
2015-Mar-21 03:31N 40°40' W 074°03'0 0.1
2015-Mar-21 02:28N 40°40' W 074°03'0 0.0
2015-Mar-21 01:28N 40°40' W 074°03'0 0.0
2015-Mar-21 00:28N 40°40' W 074°03'  

Dump ship's entire track history